KDAY/DAY METAR and TAF weather

Enter ICAO airport designator
Station Type Date Time Source
KDAY METAR 2022/01/28 05:14 UTC NOAA

KDAY 280514Z 26005KT 8SM OVC014 M02/M06 A3017 RMK AO2 T10171056 $


Station Type Date Time Source
KDAY Decoded METAR 2022/01/28 05:14 UTC NOAA

COX DAYTON INTERNATIONAL, OH, United States (KDAY) 39-54N 084-13W 305M
Jan 28, 2022 - 12:14 AM EST / 2022.01.28 0514 UTC
Wind: from the W (260 degrees) at 6 MPH (5 KT):0
Visibility: 8 mile(s):0
Sky conditions: overcast
Temperature: 28.9 F (-1.7 C)
Windchill: 23 F (-5 C):1
Dew Point: 21.9 F (-5.6 C)
Relative Humidity: 74%
Pressure (altimeter): 30.17 in. Hg (1021 hPa)
ob: KDAY 280514Z 26005KT 8SM OVC014 M02/M06 A3017 RMK AO2 T10171056
cycle: 5

Station Type Date Time Source
KDAY TAF 2022/01/27 18:42 UTC NOAA

TAF KDAY 271740Z 2718/2818 21012KT P6SM VCSH SCT025 OVC035
TEMPO 2718/2720 4SM -SHSN OVC025
FM272000 23012KT P6SM -SHSN SCT018 OVC025
TEMPO 2720/2722 4SM -SHSN OVC018
FM280300 32007KT P6SM OVC018
FM280800 36007KT P6SM SCT009 OVC015

Example: see airport list